createdAt,value
2019-04-10T00:01:21.537Z,0.91
2019-04-10T00:03:50.381Z,0.94
2019-04-10T00:06:18.755Z,0.88
2019-04-10T00:08:47.013Z,0.86
2019-04-10T00:11:15.286Z,0.83
2019-04-10T00:13:44.871Z,0.79
2019-04-10T00:16:13.925Z,0.77
2019-04-10T00:18:42.265Z,0.73
2019-04-10T00:21:11.283Z,0.67
2019-04-10T00:23:41.280Z,0.69
2019-04-10T00:26:09.968Z,0.66
2019-04-10T00:28:39.243Z,0.68
2019-04-10T00:31:07.594Z,0.51
2019-04-10T00:33:36.710Z,0.47
2019-04-10T00:36:05.045Z,0.41
2019-04-10T00:38:33.660Z,0.41
2019-04-10T00:41:02.046Z,0.45
2019-04-10T00:43:30.821Z,0.45
2019-04-10T00:45:59.906Z,0.47
2019-04-10T00:48:28.171Z,0.50
2019-04-10T00:50:57.099Z,0.52
2019-04-10T00:53:25.406Z,0.57
2019-04-10T00:55:54.340Z,0.59
2019-04-10T00:58:22.692Z,0.55
2019-04-10T01:00:51.868Z,0.55
2019-04-10T01:03:38.171Z,0.52
2019-04-10T01:06:06.477Z,0.42
2019-04-10T01:08:34.909Z,0.41
2019-04-10T01:11:03.437Z,0.31
2019-04-10T01:13:32.694Z,0.39
2019-04-10T01:16:00.959Z,0.47
2019-04-10T01:18:29.235Z,0.33
2019-04-10T01:20:57.744Z,0.33
2019-04-10T01:23:26.025Z,0.23
2019-04-10T01:25:54.764Z,0.12
2019-04-10T01:28:23.028Z,0.15
2019-04-10T01:30:51.275Z,0.22
2019-04-10T01:33:20.518Z,0.20
2019-04-10T01:35:48.892Z,0.20
2019-04-10T01:38:17.595Z,0.14
2019-04-10T01:40:46.083Z,0.14
2019-04-10T01:43:18.238Z,0.15
2019-04-10T01:45:44.333Z,0.10
2019-04-10T01:48:12.617Z,-0.03
2019-04-10T01:50:40.885Z,-0.12
2019-04-10T01:53:09.214Z,-0.16
2019-04-10T01:55:37.425Z,-0.11
2019-04-10T01:58:10.647Z,-0.19
2019-04-10T02:00:40.649Z,-0.18
2019-04-10T02:03:09.806Z,-0.08
2019-04-10T02:05:38.769Z,-0.02
2019-04-10T02:08:10.341Z,0.04
2019-04-10T02:10:37.013Z,0.01
2019-04-10T02:13:05.393Z,-0.11
2019-04-10T02:15:34.273Z,-0.05
2019-04-10T02:18:03.272Z,-0.11
2019-04-10T02:20:31.513Z,-0.15
2019-04-10T02:22:59.785Z,-0.08
2019-04-10T02:25:28.445Z,-0.12
2019-04-10T02:27:56.699Z,-0.07
2019-04-10T02:30:26.192Z,-0.01
2019-04-10T02:32:55.151Z,-0.15
2019-04-10T02:35:24.597Z,-0.14
2019-04-10T02:37:55.584Z,-0.09
2019-04-10T02:40:23.614Z,-0.19
2019-04-10T02:42:52.327Z,-0.22
2019-04-10T02:45:21.940Z,-0.29
2019-04-10T02:47:50.936Z,-0.26
2019-04-10T02:50:20.668Z,-0.25
2019-04-10T02:52:50.919Z,-0.28
2019-04-10T02:55:18.972Z,-0.35
2019-04-10T02:57:47.332Z,-0.24
2019-04-10T03:00:15.666Z,-0.26
2019-04-10T03:02:45.211Z,-0.21
2019-04-10T03:05:14.318Z,-0.17
2019-04-10T03:07:44.303Z,-0.15
2019-04-10T03:10:24.699Z,-0.19
2019-04-10T03:12:44.271Z,-0.19
2019-04-10T03:15:12.909Z,-0.19
2019-04-10T03:17:42.063Z,-0.23
2019-04-10T03:20:10.429Z,-0.24
2019-04-10T03:22:38.872Z,-0.28
2019-04-10T03:25:07.388Z,-0.28
2019-04-10T03:27:36.561Z,-0.32
2019-04-10T03:30:07.578Z,-0.44
2019-04-10T03:32:50.408Z,-0.40
2019-04-10T03:35:24.855Z,-0.36
2019-04-10T03:37:53.073Z,-0.48
2019-04-10T03:40:21.674Z,-0.59
2019-04-10T03:42:49.995Z,-0.66
2019-04-10T03:45:18.250Z,-0.65
2019-04-10T03:47:47.391Z,-0.58
2019-04-10T03:50:16.336Z,-0.50
2019-04-10T03:52:45.327Z,-0.53
2019-04-10T03:55:13.694Z,-0.52
2019-04-10T03:57:42.829Z,-0.52
2019-04-10T04:00:12.126Z,-0.59
2019-04-10T04:02:40.462Z,-0.55
2019-04-10T04:05:08.799Z,-0.51
2019-04-10T04:07:37.071Z,-0.55
2019-04-10T04:10:06.889Z,-0.54
2019-04-10T04:12:35.176Z,-0.56
2019-04-10T04:15:03.853Z,-0.64
2019-04-10T04:17:32.543Z,-0.61
2019-04-10T04:20:00.856Z,-0.54
2019-04-10T04:22:29.127Z,-0.70
2019-04-10T04:24:58.165Z,-0.72
2019-04-10T04:27:27.108Z,-0.70
2019-04-10T04:29:55.406Z,-0.73
2019-04-10T04:32:23.838Z,-0.64
2019-04-10T04:34:52.215Z,-0.60
2019-04-10T04:37:20.834Z,-0.57
2019-04-10T04:39:49.142Z,-0.71
2019-04-10T04:42:17.433Z,-0.71
2019-04-10T04:44:45.711Z,-0.62
2019-04-10T04:47:15.775Z,-0.66
2019-04-10T04:49:44.463Z,-0.58
2019-04-10T04:52:14.136Z,-0.51
2019-04-10T04:54:43.318Z,-0.46
2019-04-10T04:57:12.789Z,-0.51
2019-04-10T04:59:41.125Z,-0.50
2019-04-10T05:02:10.075Z,-0.42
2019-04-10T05:04:39.517Z,-0.41
2019-04-10T05:07:08.367Z,-0.36
2019-04-10T05:09:39.110Z,-0.30
2019-04-10T05:12:07.177Z,-0.22
2019-04-10T05:14:35.680Z,-0.18
2019-04-10T05:17:03.978Z,-0.22
2019-04-10T05:19:32.272Z,-0.18
2019-04-10T05:22:01.623Z,-0.09
2019-04-10T05:24:30.081Z,0.04
2019-04-10T05:26:59.211Z,0.13
2019-04-10T05:29:30.418Z,0.21
2019-04-10T05:31:58.650Z,0.28
2019-04-10T05:34:27.606Z,0.33
2019-04-10T05:36:56.854Z,0.42
2019-04-10T05:39:25.217Z,0.51
2019-04-10T05:41:53.467Z,0.67
2019-04-10T05:44:21.762Z,0.73
2019-04-10T05:46:50.040Z,0.77
2019-04-10T05:49:18.317Z,0.87
2019-04-10T05:51:46.598Z,0.91
2019-04-10T05:54:15.022Z,0.93
2019-04-10T05:56:43.323Z,1.03
2019-04-10T05:59:12.285Z,1.11
2019-04-10T06:01:42.784Z,1.26
2019-04-10T06:04:11.592Z,1.42
2019-04-10T06:06:40.883Z,1.43
2019-04-10T06:09:09.835Z,1.54
2019-04-10T06:11:39.322Z,1.70
2019-04-10T06:14:08.169Z,1.62
2019-04-10T06:16:37.105Z,1.76
2019-04-10T06:19:05.486Z,1.90
2019-04-10T06:21:33.760Z,2.08
2019-04-10T06:24:02.037Z,2.17
2019-04-10T06:26:30.328Z,2.26
2019-04-10T06:28:58.953Z,2.34
2019-04-10T06:31:28.449Z,2.32
2019-04-10T06:33:58.406Z,2.63
2019-04-10T06:36:27.181Z,2.63
2019-04-10T06:38:55.483Z,2.82
2019-04-10T06:41:24.298Z,3.00
2019-04-10T06:43:53.128Z,3.09
2019-04-10T06:46:22.241Z,3.22
2019-04-10T06:48:50.645Z,3.18
2019-04-10T06:51:21.227Z,3.26
2019-04-10T06:54:00.188Z,3.23
2019-04-10T06:56:18.913Z,3.39
2019-04-10T06:58:47.763Z,3.35
2019-04-10T07:01:16.669Z,3.53
2019-04-10T07:03:55.771Z,3.71
2019-04-10T07:06:19.851Z,3.77
2019-04-10T07:08:48.833Z,3.84
2019-04-10T07:11:18.051Z,4.03
2019-04-10T07:13:45.034Z,4.09
2019-04-10T07:16:13.314Z,4.30
2019-04-10T07:18:45.819Z,4.35
2019-04-10T07:21:12.541Z,4.43
2019-04-10T07:23:40.845Z,4.45
2019-04-10T07:26:10.121Z,4.41
2019-04-10T07:28:41.522Z,4.32
2019-04-10T07:31:10.081Z,4.29
2019-04-10T07:33:39.119Z,4.37
2019-04-10T07:36:09.614Z,4.64
2019-04-10T07:38:37.395Z,4.78
2019-04-10T07:41:13.552Z,4.84
2019-04-10T07:43:36.418Z,5.05
2019-04-10T07:46:04.694Z,5.24
2019-04-10T07:48:33.535Z,5.38
2019-04-10T07:51:02.814Z,5.44
2019-04-10T07:53:31.108Z,5.24
2019-04-10T07:56:06.325Z,5.37
2019-04-10T07:58:29.369Z,5.39
2019-04-10T08:00:58.662Z,5.25
2019-04-10T08:03:27.273Z,5.28
2019-04-10T08:05:55.658Z,5.44
2019-04-10T08:08:23.936Z,5.71
2019-04-10T08:10:52.994Z,5.74
2019-04-10T08:13:21.263Z,5.74
2019-04-10T08:15:50.059Z,5.55
2019-04-10T08:18:18.936Z,5.50
2019-04-10T08:20:47.266Z,5.51
2019-04-10T08:23:15.527Z,5.52
2019-04-10T08:25:43.818Z,5.66
2019-04-10T08:28:12.084Z,5.88
2019-04-10T08:30:40.379Z,6.06
2019-04-10T08:33:09.779Z,6.28
2019-04-10T08:35:38.133Z,6.46
2019-04-10T08:38:07.577Z,6.39
2019-04-10T08:40:36.277Z,6.89
2019-04-10T08:43:04.510Z,6.82
2019-04-10T08:45:40.580Z,6.92
2019-04-10T08:48:03.622Z,6.97
2019-04-10T08:50:32.275Z,7.16
2019-04-10T08:53:00.559Z,7.03
2019-04-10T08:55:28.821Z,7.31
2019-04-10T08:57:57.153Z,7.36
2019-04-10T09:00:25.392Z,7.37
2019-04-10T09:02:54.722Z,7.68
2019-04-10T09:05:23.824Z,7.31
2019-04-10T09:07:52.709Z,7.00
2019-04-10T09:10:21.026Z,6.89
2019-04-10T09:12:49.298Z,6.78
2019-04-10T09:15:18.154Z,6.55
2019-04-10T09:17:47.216Z,6.23
2019-04-10T09:20:16.326Z,6.20
2019-04-10T09:23:10.800Z,6.20
2019-04-10T09:25:16.087Z,6.30
2019-04-10T09:27:44.770Z,6.66
2019-04-10T09:30:13.053Z,6.74
2019-04-10T09:32:42.293Z,6.78
2019-04-10T09:35:10.730Z,7.08
2019-04-10T09:37:39.892Z,6.92
2019-04-10T09:40:08.508Z,6.75
2019-04-10T09:42:37.593Z,6.46
2019-04-10T09:45:06.179Z,6.07
2019-04-10T09:47:34.763Z,6.21
2019-04-10T09:50:03.672Z,6.33
2019-04-10T09:52:32.113Z,6.42
2019-04-10T09:55:00.414Z,6.34
2019-04-10T09:57:28.820Z,6.23
2019-04-10T09:59:57.048Z,6.44
2019-04-10T10:02:25.321Z,6.78
2019-04-10T10:04:53.682Z,7.17
2019-04-10T10:07:21.994Z,7.41
2019-04-10T10:09:51.349Z,7.48
2019-04-10T10:12:20.184Z,7.30
2019-04-10T10:14:48.458Z,7.55
2019-04-10T10:17:16.934Z,7.95
2019-04-10T10:19:46.003Z,8.21
2019-04-10T10:22:14.726Z,8.36
2019-04-10T10:24:43.029Z,7.92
2019-04-10T10:27:11.497Z,7.83
2019-04-10T10:29:39.838Z,7.54
2019-04-10T10:32:08.721Z,7.06
2019-04-10T10:34:37.047Z,7.08
2019-04-10T10:37:06.337Z,7.07
2019-04-10T10:39:35.008Z,7.19
2019-04-10T10:42:03.353Z,7.12
2019-04-10T10:44:32.239Z,7.54
2019-04-10T10:47:00.539Z,7.58
2019-04-10T10:49:28.823Z,7.09
2019-04-10T10:51:57.311Z,7.14
2019-04-10T10:54:26.838Z,7.07
2019-04-10T10:56:55.584Z,7.17
2019-04-10T10:59:25.099Z,7.49
2019-04-10T11:01:53.847Z,7.68
2019-04-10T11:04:23.255Z,8.23
2019-04-10T11:09:21.536Z,8.23
2019-04-10T11:11:49.798Z,8.45
2019-04-10T11:14:19.074Z,7.80
2019-04-10T11:16:47.417Z,7.13
2019-04-10T11:19:15.685Z,7.30
2019-04-10T11:21:45.036Z,7.89
2019-04-10T11:24:13.732Z,8.15
2019-04-10T11:26:42.610Z,7.85
2019-04-10T11:29:11.838Z,8.16
2019-04-10T11:31:41.476Z,8.20
2019-04-10T11:34:11.229Z,8.05
2019-04-10T11:36:40.081Z,8.14
2019-04-10T11:39:18.634Z,8.20
2019-04-10T11:41:39.876Z,7.86
2019-04-10T11:44:09.919Z,8.07
2019-04-10T11:46:41.487Z,8.27
2019-04-10T11:49:12.912Z,8.30
2019-04-10T11:51:38.951Z,8.51
2019-04-10T11:54:12.122Z,8.28
2019-04-10T11:56:38.363Z,8.07
2019-04-10T11:59:09.203Z,8.20
2019-04-10T12:01:38.625Z,8.17
2019-04-10T12:04:09.860Z,8.08
2019-04-10T12:06:38.206Z,8.36
2019-04-10T12:09:43.279Z,8.69
2019-04-10T12:11:39.284Z,9.07
2019-04-10T12:14:07.694Z,9.31
2019-04-10T12:16:36.887Z,9.63
2019-04-10T12:19:05.171Z,8.91
2019-04-10T12:21:33.724Z,9.10
2019-04-10T12:24:02.167Z,8.58
2019-04-10T12:26:30.446Z,8.50
2019-04-10T12:28:58.742Z,8.50
2019-04-10T12:31:28.094Z,8.68
2019-04-10T12:33:56.936Z,8.92
2019-04-10T12:36:25.305Z,9.05
2019-04-10T12:38:54.099Z,8.93
2019-04-10T12:41:23.452Z,9.33
2019-04-10T12:43:51.746Z,9.02
2019-04-10T12:46:21.032Z,9.02
2019-04-10T12:48:49.363Z,8.63
2019-04-10T12:51:17.667Z,8.41
2019-04-10T12:53:45.939Z,8.50
2019-04-10T12:56:14.194Z,8.40
2019-04-10T12:58:42.649Z,8.20
2019-04-10T13:01:12.112Z,8.31
2019-04-10T13:03:41.173Z,8.38
2019-04-10T13:06:09.585Z,8.63
2019-04-10T13:08:52.527Z,9.13
2019-04-10T13:11:07.867Z,9.11
2019-04-10T13:13:36.150Z,9.26
2019-04-10T13:16:04.546Z,9.22
2019-04-10T13:18:32.830Z,9.41
2019-04-10T13:21:02.115Z,9.24
2019-04-10T13:23:30.899Z,9.02
2019-04-10T13:26:00.997Z,9.19
2019-04-10T13:28:29.725Z,9.14
2019-04-10T13:30:59.274Z,9.17
2019-04-10T13:33:28.863Z,9.44
2019-04-10T13:35:57.618Z,9.22
2019-04-10T13:38:30.181Z,8.46
2019-04-10T13:40:56.362Z,8.64
2019-04-10T13:43:25.574Z,8.77
2019-04-10T13:45:54.229Z,8.68
2019-04-10T13:48:22.926Z,9.04
2019-04-10T13:50:51.258Z,9.45
2019-04-10T13:53:19.701Z,9.43
2019-04-10T13:55:48.622Z,9.49
2019-04-10T13:58:17.247Z,9.12
2019-04-10T14:00:45.516Z,9.07
2019-04-10T14:03:14.274Z,9.17
2019-04-10T14:05:43.303Z,9.27
2019-04-10T14:08:12.593Z,9.37
2019-04-10T14:10:41.882Z,9.35
2019-04-10T14:13:10.143Z,9.42
2019-04-10T14:15:38.393Z,9.54
2019-04-10T14:18:06.657Z,9.37
2019-04-10T14:20:35.411Z,8.97
2019-04-10T14:23:06.356Z,8.66
2019-04-10T14:25:36.378Z,8.52
2019-04-10T14:28:04.989Z,8.42
2019-04-10T14:30:41.113Z,8.38
2019-04-10T14:33:10.507Z,8.31
2019-04-10T14:35:39.070Z,8.48
2019-04-10T14:38:08.490Z,8.68
2019-04-10T14:40:37.893Z,8.86
2019-04-10T14:43:07.353Z,9.02
2019-04-10T14:45:35.918Z,8.88
2019-04-10T14:48:04.174Z,8.91
2019-04-10T14:50:33.593Z,8.45
2019-04-10T14:53:01.885Z,7.92
2019-04-10T14:55:30.357Z,7.97
2019-04-10T14:57:59.195Z,8.49
2019-04-10T15:00:39.077Z,8.83
2019-04-10T15:03:08.484Z,8.45
2019-04-10T15:05:46.608Z,8.70
2019-04-10T15:08:07.181Z,8.46
2019-04-10T15:10:35.458Z,8.41
2019-04-10T15:13:10.090Z,8.75
2019-04-10T15:15:34.514Z,8.99
2019-04-10T15:18:02.843Z,8.78
2019-04-10T15:20:31.389Z,8.78
2019-04-10T15:23:00.768Z,8.77
2019-04-10T15:25:29.118Z,8.73
2019-04-10T15:27:57.915Z,8.69
2019-04-10T15:30:26.505Z,9.11
2019-04-10T15:32:54.778Z,8.93
2019-04-10T15:35:23.039Z,8.90
2019-04-10T15:37:51.449Z,8.72
2019-04-10T15:40:24.384Z,8.88
2019-04-10T15:42:49.795Z,8.69
2019-04-10T15:45:18.393Z,8.76
2019-04-10T15:47:52.554Z,8.87
2019-04-10T15:50:17.978Z,8.61
2019-04-10T15:52:47.287Z,8.28
2019-04-10T15:55:15.630Z,8.50
2019-04-10T15:57:50.455Z,8.76
2019-04-10T16:00:14.351Z,8.74
2019-04-10T16:02:42.651Z,8.82
2019-04-10T16:05:10.866Z,8.58
2019-04-10T16:07:39.430Z,8.32
2019-04-10T16:10:09.295Z,8.13
2019-04-10T16:12:37.562Z,8.18
2019-04-10T16:15:06.456Z,8.34
2019-04-10T16:17:39.902Z,7.83
2019-04-10T16:20:19.571Z,7.80
2019-04-10T16:22:53.084Z,7.76
2019-04-10T16:25:22.934Z,7.57
2019-04-10T16:27:51.202Z,7.41
2019-04-10T16:30:22.104Z,7.55
2019-04-10T16:32:50.371Z,7.49
2019-04-10T16:35:19.063Z,7.34
2019-04-10T16:37:47.533Z,7.30
2019-04-10T16:40:15.744Z,7.54
2019-04-10T16:42:44.023Z,7.48
2019-04-10T16:45:13.588Z,7.42
2019-04-10T16:47:42.030Z,7.49
2019-04-10T16:50:11.197Z,7.08
2019-04-10T16:52:39.542Z,7.17
2019-04-10T16:55:08.415Z,7.06
2019-04-10T16:57:36.742Z,7.02
2019-04-10T17:00:06.913Z,7.08
2019-04-10T17:02:36.024Z,6.98
2019-04-10T17:05:06.796Z,6.94
2019-04-10T17:07:36.046Z,6.94
2019-04-10T17:10:15.964Z,6.97
2019-04-10T17:12:38.008Z,7.18
2019-04-10T17:15:10.152Z,6.98
2019-04-10T17:17:38.917Z,6.99
2019-04-10T17:20:08.710Z,7.02
2019-04-10T17:22:43.563Z,7.16
2019-04-10T17:25:07.638Z,6.91
2019-04-10T17:27:35.925Z,7.02
2019-04-10T17:30:07.341Z,7.04
2019-04-10T17:32:36.328Z,6.99
2019-04-10T17:35:07.529Z,6.90
2019-04-10T17:37:36.576Z,6.88
2019-04-10T17:40:23.157Z,6.69
2019-04-10T17:42:40.998Z,6.52
2019-04-10T17:45:10.030Z,6.50
2019-04-10T17:47:38.884Z,6.38
2019-04-10T17:50:09.124Z,6.22
2019-04-10T17:52:38.108Z,6.20
2019-04-10T17:55:07.726Z,6.08
2019-04-10T17:57:40.415Z,5.89
2019-04-10T18:00:22.927Z,5.90
2019-04-10T18:02:51.307Z,5.86
2019-04-10T18:05:20.376Z,5.77
2019-04-10T18:07:48.737Z,5.73
2019-04-10T18:10:17.163Z,5.67
2019-04-10T18:12:46.102Z,5.51
2019-04-10T18:15:15.643Z,5.46
2019-04-10T18:17:44.040Z,5.27
2019-04-10T18:20:12.357Z,5.31
2019-04-10T18:22:40.754Z,5.35
2019-04-10T18:25:09.705Z,5.30
2019-04-10T18:27:38.659Z,5.20
2019-04-10T18:30:07.869Z,5.06
2019-04-10T18:32:36.244Z,5.05
2019-04-10T18:35:06.776Z,5.02
2019-04-10T18:37:35.394Z,5.06
2019-04-10T18:40:05.293Z,4.97
2019-04-10T18:42:33.626Z,4.80
2019-04-10T18:45:01.989Z,4.79
2019-04-10T18:47:32.346Z,4.82
2019-04-10T18:50:01.148Z,4.81
2019-04-10T18:52:30.257Z,4.84
2019-04-10T18:54:58.570Z,4.80
2019-04-10T18:57:26.783Z,4.86
2019-04-10T19:00:12.877Z,4.81
2019-04-10T19:02:43.174Z,4.74
2019-04-10T19:05:24.839Z,4.75
2019-04-10T19:07:53.145Z,4.76
2019-04-10T19:10:22.135Z,4.79
2019-04-10T19:12:50.768Z,4.73
2019-04-10T19:15:20.293Z,4.66
2019-04-10T19:17:48.855Z,4.59
2019-04-10T19:20:17.975Z,4.65
2019-04-10T19:22:46.406Z,4.62
2019-04-10T19:25:14.735Z,4.53
2019-04-10T19:27:43.041Z,4.56
2019-04-10T19:30:15.807Z,4.55
2019-04-10T19:32:44.108Z,4.49
2019-04-10T19:35:12.978Z,4.50
2019-04-10T19:37:41.199Z,4.46
2019-04-10T19:40:11.062Z,4.43
2019-04-10T19:42:39.775Z,4.34
2019-04-10T19:45:08.179Z,4.30
2019-04-10T19:47:36.777Z,4.37
2019-04-10T19:50:05.506Z,4.21
2019-04-10T19:52:33.778Z,4.12
2019-04-10T19:55:03.168Z,4.08
2019-04-10T19:57:31.629Z,4.03
2019-04-10T20:00:00.034Z,4.01
2019-04-10T20:02:28.389Z,3.93
2019-04-10T20:04:57.005Z,3.90
2019-04-10T20:07:25.297Z,3.88
2019-04-10T20:09:53.558Z,3.78
2019-04-10T20:12:21.839Z,3.78
2019-04-10T20:14:50.097Z,3.83
2019-04-10T20:17:18.382Z,3.78
2019-04-10T20:19:46.787Z,3.79
2019-04-10T20:22:15.095Z,3.83
2019-04-10T20:24:43.365Z,3.82
2019-04-10T20:27:11.979Z,3.61
2019-04-10T20:29:41.912Z,3.57
2019-04-10T20:32:11.509Z,3.62
2019-04-10T20:34:40.189Z,3.62
2019-04-10T20:37:11.093Z,3.58
2019-04-10T20:39:39.222Z,3.63
2019-04-10T20:42:07.777Z,3.57
2019-04-10T20:44:36.586Z,3.61
2019-04-10T20:47:04.897Z,3.59
2019-04-10T20:49:34.260Z,3.52
2019-04-10T20:52:02.464Z,3.52
2019-04-10T20:54:30.910Z,3.58
2019-04-10T20:56:59.287Z,3.61
2019-04-10T20:59:28.606Z,3.58
2019-04-10T21:01:57.803Z,3.56
2019-04-10T21:04:26.099Z,3.56
2019-04-10T21:06:54.457Z,3.54
2019-04-10T21:09:23.624Z,3.58
2019-04-10T21:12:01.964Z,3.61
2019-04-10T21:14:23.342Z,3.64
2019-04-10T21:16:51.946Z,3.57
2019-04-10T21:19:20.668Z,3.56
2019-04-10T21:21:49.073Z,3.44
2019-04-10T21:24:17.281Z,3.46
2019-04-10T21:26:46.450Z,3.46
2019-04-10T21:29:18.991Z,3.45
2019-04-10T21:31:52.566Z,3.42
2019-04-10T21:34:28.538Z,3.53
2019-04-10T21:36:57.595Z,3.57
2019-04-10T21:39:25.910Z,3.59
2019-04-10T21:41:54.188Z,3.62
2019-04-10T21:44:22.460Z,3.59
2019-04-10T21:46:50.746Z,3.50
2019-04-10T21:49:19.825Z,3.43
2019-04-10T21:51:48.154Z,3.49
2019-04-10T21:54:16.453Z,3.54
2019-04-10T21:56:45.092Z,3.38
2019-04-10T21:59:16.019Z,3.30
2019-04-10T22:01:43.417Z,3.26
2019-04-10T22:04:11.777Z,3.20
2019-04-10T22:06:41.677Z,3.18
2019-04-10T22:09:12.674Z,3.22
2019-04-10T22:11:49.627Z,3.29
2019-04-10T22:14:19.142Z,3.24
2019-04-10T22:16:48.419Z,3.20
2019-04-10T22:19:17.189Z,3.18
2019-04-10T22:21:46.218Z,3.34
2019-04-10T22:24:15.672Z,3.41
2019-04-10T22:26:44.542Z,3.50
2019-04-10T22:29:14.073Z,3.57
2019-04-10T22:31:43.693Z,3.63
2019-04-10T22:34:12.255Z,3.60
2019-04-10T22:36:41.471Z,3.55
2019-04-10T22:39:11.397Z,3.52
2019-04-10T22:41:40.695Z,3.63
2019-04-10T22:44:09.748Z,3.69
2019-04-10T22:46:38.402Z,3.74
2019-04-10T22:49:06.726Z,3.74
2019-04-10T22:51:35.592Z,3.74
2019-04-10T22:54:04.122Z,3.78
2019-04-10T22:56:33.654Z,3.79
2019-04-10T22:59:01.934Z,3.81
2019-04-10T23:01:31.246Z,3.77
2019-04-10T23:03:59.550Z,3.73
2019-04-10T23:06:27.825Z,3.76
2019-04-10T23:08:56.089Z,3.74
2019-04-10T23:11:34.823Z,3.70
2019-04-10T23:13:54.438Z,3.76
2019-04-10T23:16:22.690Z,3.78
2019-04-10T23:18:51.823Z,3.84
2019-04-10T23:21:20.759Z,3.75
2019-04-10T23:23:50.030Z,3.80
2019-04-10T23:26:18.339Z,3.84
2019-04-10T23:28:47.471Z,3.89
2019-04-10T23:31:15.778Z,3.91
2019-04-10T23:33:44.077Z,3.89
2019-04-10T23:36:12.295Z,3.89
2019-04-10T23:38:41.690Z,3.92
2019-04-10T23:41:10.006Z,3.93
2019-04-10T23:43:38.268Z,3.97
2019-04-10T23:46:06.532Z,4.01
2019-04-10T23:48:35.026Z,4.02
2019-04-10T23:51:03.246Z,3.94
2019-04-10T23:53:31.490Z,3.95
2019-04-10T23:55:59.773Z,3.95
2019-04-10T23:58:28.055Z,3.96
